Time;durP1;ratioP1;P1;durP2;ratioP2;P2;SDS_P1;SDS_P2;PMS_P1;PMS_P2;Temp;Humidity;BMP_temperature;BMP_pressure;BME280_temperature;BME280_humidity;BME280_pressure;Samples;Min_cycle;Max_cycle;Signal;HPM_P1;HPM_P2
2024/02/27 00:01:48;;;;;;;11.80;7.20;;;;;;;10.37;69.82;97373.78;5071728;28;20029;-47
2024/02/27 00:04:14;;;;;;;11.93;7.80;;;;;;;10.27;69.77;97379.56;5071880;28;20036;-47
2024/02/27 00:06:40;;;;;;;8.65;5.47;;;;;;;10.30;70.32;97384.41;5070563;28;20028;-47
2024/02/27 00:09:08;;;;;;;10.57;5.80;;;;;;;10.35;69.94;97381.09;5072042;28;20071;-47
2024/02/27 00:11:34;;;;;;;12.80;6.95;;;;;;;10.31;70.23;97383.38;5071961;28;20398;-47
2024/02/27 00:14:01;;;;;;;18.83;9.65;;;;;;;10.32;70.79;97384.97;5072114;28;20032;-47
2024/02/27 00:16:27;;;;;;;16.83;11.80;;;;;;;10.39;70.44;97384.84;5071790;28;20028;-47
2024/02/27 00:18:52;;;;;;;16.42;7.72;;;;;;;10.32;70.04;97387.59;5070429;28;20032;-47
2024/02/27 00:21:19;;;;;;;16.73;6.97;;;;;;;10.18;69.75;97386.19;5071949;28;20021;-47
2024/02/27 00:23:45;;;;;;;10.55;7.45;;;;;;;10.02;70.05;97389.50;5071994;28;20486;-47
2024/02/27 00:26:11;;;;;;;16.15;9.18;;;;;;;9.92;70.47;97400.56;5070284;28;20056;-46
2024/02/27 00:28:36;;;;;;;11.68;6.95;;;;;;;9.74;70.82;97402.28;5070379;28;20063;-46
2024/02/27 00:31:03;;;;;;;14.57;7.32;;;;;;;9.58;71.61;97408.19;5071550;28;20406;-47
2024/02/27 00:33:29;;;;;;;13.60;6.32;;;;;;;9.48;72.15;97403.50;5070134;28;20127;-46
2024/02/27 00:35:54;;;;;;;9.43;5.75;;;;;;;9.44;72.59;97404.97;5071829;28;20610;-47
2024/02/27 00:38:20;;;;;;;10.15;5.63;;;;;;;9.33;73.20;97403.88;5071553;28;20028;-47
2024/02/27 00:40:45;;;;;;;10.63;5.28;;;;;;;9.33;74.17;97411.75;5070225;28;20505;-46
2024/02/27 00:43:11;;;;;;;15.23;9.07;;;;;;;9.33;74.84;97410.94;5070197;28;20032;-47
2024/02/27 00:45:37;;;;;;;11.57;5.78;;;;;;;9.40;74.82;97415.06;5070165;28;20122;-47
2024/02/27 00:48:03;;;;;;;9.40;5.40;;;;;;;9.54;74.95;97418.31;5070144;28;20052;-47
2024/02/27 00:50:30;;;;;;;11.18;5.25;;;;;;;9.62;74.65;97409.31;5071361;28;20168;-47
2024/02/27 00:52:56;;;;;;;14.02;6.45;;;;;;;9.67;74.14;97416.50;5070160;28;20110;-46
2024/02/27 00:55:22;;;;;;;10.35;5.57;;;;;;;9.65;73.69;97410.69;5071609;28;20107;-47
2024/02/27 00:57:48;;;;;;;11.65;5.32;;;;;;;9.65;74.09;97415.94;5071332;28;20498;-46
2024/02/27 01:00:14;;;;;;;11.18;5.10;;;;;;;9.65;73.74;97418.53;5070098;28;20060;-46
2024/02/27 01:02:41;;;;;;;8.88;5.35;;;;;;;9.75;73.41;97424.03;5071315;28;20402;-46
2024/02/27 01:05:09;;;;;;;8.15;6.45;;;;;;;9.72;73.46;97417.41;5071272;28;20071;-47
2024/02/27 01:07:35;;;;;;;13.98;5.82;;;;;;;9.77;73.13;97414.13;5070016;28;20090;-46
2024/02/27 01:10:02;;;;;;;15.13;4.80;;;;;;;9.70;72.30;97419.47;5071234;28;20036;-47
2024/02/27 01:12:28;;;;;;;8.80;4.28;;;;;;;9.68;73.04;97423.31;5072561;28;20028;-46
2024/02/27 01:14:54;;;;;;;8.77;4.43;;;;;;;9.90;73.16;97420.94;5074892;28;20036;-48
2024/02/27 01:17:19;;;;;;;36.05;32.35;;;;;;;10.08;72.72;97423.50;5073624;28;20033;-47
2024/02/27 01:19:45;;;;;;;10.75;6.65;;;;;;;10.23;72.47;97416.97;5073874;28;20055;-46
2024/02/27 01:22:12;;;;;;;9.30;4.70;;;;;;;10.25;71.33;97420.19;5074766;28;20106;-46
2024/02/27 01:24:38;;;;;;;8.35;5.97;;;;;;;10.12;71.17;97427.25;5073566;28;20029;-47
2024/02/27 01:27:04;;;;;;;9.52;5.25;;;;;;;9.96;70.98;97427.91;5073760;28;20060;-47
2024/02/27 01:29:31;;;;;;;11.52;5.32;;;;;;;9.87;72.05;97421.41;5073556;28;20119;-47
2024/02/27 01:31:57;;;;;;;12.52;5.53;;;;;;;9.93;72.59;97420.50;5074465;28;20447;-46
2024/02/27 01:34:24;;;;;;;15.40;13.82;;;;;;;9.99;72.33;97415.16;5073347;28;20055;-47
2024/02/27 01:36:49;;;;;;;10.75;5.20;;;;;;;9.95;72.06;97415.84;5074580;28;20544;-47
2024/02/27 01:39:15;;;;;;;41.35;35.70;;;;;;;9.87;72.12;97416.97;5074574;28;20025;-47
2024/02/27 01:41:47;;;;;;;14.63;7.68;;;;;;;9.82;72.21;97416.88;5073171;28;20071;-46
2024/02/27 01:44:13;;;;;;;14.40;8.73;;;;;;;9.83;72.48;97415.81;5074500;28;20455;-46
2024/02/27 01:46:38;;;;;;;9.77;6.57;;;;;;;9.87;72.70;97416.19;5074374;28;20028;-46
2024/02/27 01:49:04;;;;;;;9.27;5.75;;;;;;;9.93;72.53;97421.31;5074361;28;20406;-46
2024/02/27 01:51:31;;;;;;;15.65;8.57;;;;;;;9.90;73.05;97419.16;5074284;28;20186;-47
2024/02/27 01:53:59;;;;;;;7.43;4.78;;;;;;;10.07;72.95;97414.00;5072958;28;20035;-46
2024/02/27 01:56:25;;;;;;;9.13;5.07;;;;;;;10.27;72.60;97426.00;5074157;28;20054;-47
2024/02/27 01:58:52;;;;;;;8.63;4.93;;;;;;;10.48;72.53;97422.78;5074465;28;20486;-46
2024/02/27 02:01:20;;;;;;;10.27;5.20;;;;;;;10.58;71.85;97420.41;5073035;28;20027;-46
2024/02/27 02:03:47;;;;;;;305.75;278.95;;;;;;;10.63;71.33;97427.56;5072790;28;20032;-47
2024/02/27 02:06:13;;;;;;;41.53;37.30;;;;;;;10.67;70.96;97436.56;5072714;28;20513;-47
2024/02/27 02:08:39;;;;;;;27.45;24.65;;;;;;;10.79;71.12;97439.97;5073994;28;20410;-46
2024/02/27 02:11:10;;;;;;;11.10;7.72;;;;;;;10.98;70.61;97445.81;5072543;28;20112;-47
2024/02/27 02:13:37;;;;;;;54.00;48.60;;;;;;;11.10;69.78;97450.25;5073917;28;20033;-46
2024/02/27 02:16:03;;;;;;;18.33;13.40;;;;;;;10.93;69.41;97452.81;5072469;28;20425;-46
2024/02/27 02:18:29;;;;;;;9.65;7.00;;;;;;;10.71;69.49;97452.66;5073843;28;20394;-47
2024/02/27 02:20:54;;;;;;;336.17;302.58;;;;;;;10.66;70.21;97452.53;5073730;28;20020;-46
2024/02/27 02:23:20;;;;;;;53.67;43.67;;;;;;;10.77;70.88;97457.75;5072068;28;20099;-47
2024/02/27 02:25:47;;;;;;;15.68;11.75;;;;;;;10.88;70.24;97452.72;5073693;28;20395;-47
2024/02/27 02:28:14;;;;;;;14.73;7.60;;;;;;;11.08;69.94;97457.56;5073594;28;20125;-47
2024/02/27 02:30:41;;;;;;;9.88;5.90;;;;;;;11.18;69.54;97452.50;5072188;28;20078;-46
2024/02/27 02:33:09;;;;;;;12.50;6.00;;;;;;;11.23;69.00;97462.28;5073314;28;20060;-47
2024/02/27 02:35:35;;;;;;;44.85;39.20;;;;;;;11.17;68.96;97464.84;5073373;28;20028;-47
2024/02/27 02:38:00;;;;;;;15.30;10.57;;;;;;;11.22;69.55;97455.47;5073427;28;20024;-47
2024/02/27 02:40:26;;;;;;;10.30;5.53;;;;;;;10.99;68.19;97452.69;5073360;28;20379;-47
2024/02/27 02:42:52;;;;;;;14.88;6.93;;;;;;;10.80;69.88;97459.13;5072361;28;20402;-47
2024/02/27 02:45:21;;;;;;;9.20;4.63;;;;;;;10.92;70.42;97453.84;5071877;28;20024;-47
2024/02/27 02:47:46;;;;;;;11.80;5.00;;;;;;;11.02;70.67;97454.03;5071929;28;20028;-47
2024/02/27 02:50:13;;;;;;;10.02;6.00;;;;;;;11.28;69.78;97451.91;5073063;28;20440;-47
2024/02/27 02:52:39;;;;;;;14.27;5.68;;;;;;;11.52;69.48;97448.13;5073006;28;20024;-47
2024/02/27 02:55:07;;;;;;;15.45;13.57;;;;;;;11.65;68.65;97447.03;5073292;28;20387;-47
2024/02/27 02:57:34;;;;;;;20.95;16.23;;;;;;;11.64;68.59;97447.25;5073055;28;20031;-47
2024/02/27 03:00:00;;;;;;;26.52;23.63;;;;;;;11.59;68.78;97445.34;5072871;28;20025;-47
2024/02/27 03:02:26;;;;;;;21.48;10.65;;;;;;;11.65;68.90;97451.47;5072967;28;20028;-46
2024/02/27 03:04:52;;;;;;;12.13;7.70;;;;;;;11.80;68.90;97460.41;5071618;28;20028;-47
2024/02/27 03:07:18;;;;;;;10.63;7.93;;;;;;;11.86;68.43;97457.88;5072746;28;20028;-47
2024/02/27 03:09:44;;;;;;;12.43;8.07;;;;;;;11.87;68.24;97451.56;5071736;28;20025;-47
2024/02/27 03:12:10;;;;;;;10.73;7.43;;;;;;;11.82;68.03;97451.50;5072674;28;20017;-47
2024/02/27 03:14:37;;;;;;;11.10;5.28;;;;;;;11.69;67.61;97453.41;5071476;28;20556;-47
2024/02/27 03:17:02;;;;;;;8.82;4.68;;;;;;;11.59;67.88;97458.50;5072516;28;20044;-46
2024/02/27 03:19:30;;;;;;;6.28;4.70;;;;;;;11.67;67.50;97454.66;5072651;28;20028;-47
2024/02/27 03:21:56;;;;;;;8.77;5.03;;;;;;;11.77;66.74;97455.66;5072602;28;20028;-47
2024/02/27 03:24:22;;;;;;;10.35;5.30;;;;;;;11.85;66.54;97458.91;5072546;28;20549;-47
2024/02/27 03:26:48;;;;;;;9.02;4.68;;;;;;;11.94;66.68;97454.88;5072464;28;20028;-47
2024/02/27 03:29:14;;;;;;;13.88;5.60;;;;;;;12.01;65.65;97460.75;5054545;28;20036;-46
2024/02/27 03:31:40;;;;;;;11.45;5.07;;;;;;;12.05;65.30;97467.13;5070712;28;20028;-47
2024/02/27 03:34:05;;;;;;;7.93;4.70;;;;;;;11.98;64.29;97471.78;5072165;28;20036;-47
2024/02/27 03:36:31;;;;;;;10.52;5.32;;;;;;;11.76;63.89;97480.31;5071824;28;20025;-47
2024/02/27 03:38:57;;;;;;;12.80;6.05;;;;;;;11.48;64.21;97481.16;5072270;28;20482;-47
2024/02/27 03:41:23;;;;;;;6.45;4.68;;;;;;;11.54;64.62;97477.59;5072195;28;20081;-47
2024/02/27 03:43:49;;;;;;;6.80;4.57;;;;;;;11.65;64.76;97489.09;5072176;28;20028;-46
2024/02/27 03:46:14;;;;;;;12.57;4.90;;;;;;;11.72;64.14;97492.34;5070769;28;20494;-47
2024/02/27 03:48:40;;;;;;;9.25;5.22;;;;;;;11.78;63.86;97498.50;5070820;28;20528;-47
2024/02/27 03:51:06;;;;;;;10.32;5.95;;;;;;;11.85;64.17;97496.53;5070650;28;20088;-47
2024/02/27 03:53:32;;;;;;;13.30;5.68;;;;;;;11.91;63.29;97500.03;5072037;28;20482;-46
2024/02/27 03:55:58;;;;;;;7.90;4.80;;;;;;;11.84;63.28;97499.38;5072013;28;20036;-46
2024/02/27 03:58:24;;;;;;;8.63;5.35;;;;;;;11.68;63.69;97504.38;5071991;28;20120;-46
2024/02/27 04:00:50;;;;;;;9.48;7.65;;;;;;;11.48;63.45;97509.25;5070633;28;20052;-46
2024/02/27 04:03:16;;;;;;;5.88;4.28;;;;;;;11.27;64.36;97501.00;5070644;28;20406;-46
2024/02/27 04:05:42;;;;;;;10.65;6.15;;;;;;;11.16;64.43;97514.97;5071882;28;20028;-47
2024/02/27 04:08:10;;;;;;;8.57;5.07;;;;;;;11.13;64.46;97515.44;5071858;28;20024;-46
2024/02/27 04:10:36;;;;;;;7.53;5.30;;;;;;;11.04;64.94;97508.94;5070462;28;20052;-47
2024/02/27 04:13:02;;;;;;;9.02;5.53;;;;;;;10.93;65.61;97507.94;5070485;28;20071;-46
2024/02/27 04:15:28;;;;;;;8.55;4.97;;;;;;;10.93;66.13;97506.13;5070480;28;20059;-46
2024/02/27 04:17:55;;;;;;;8.55;5.10;;;;;;;10.99;66.59;97513.06;5070447;28;20486;-47
2024/02/27 04:20:21;;;;;;;9.95;7.13;;;;;;;11.06;66.26;97510.28;5070424;28;20468;-46
2024/02/27 04:22:47;;;;;;;12.43;6.05;;;;;;;11.10;66.17;97511.44;5070407;28;20375;-46
2024/02/27 04:25:13;;;;;;;8.13;5.55;;;;;;;11.19;66.46;97511.88;5071655;28;20517;-47
2024/02/27 04:27:42;;;;;;;11.73;5.75;;;;;;;11.20;66.31;97513.47;5070403;28;20032;-46
2024/02/27 04:30:08;;;;;;;7.25;4.97;;;;;;;11.21;65.92;97522.94;5070305;28;20379;-46
2024/02/27 04:32:34;;;;;;;8.43;4.90;;;;;;;11.18;66.08;97516.31;5069998;28;20059;-46
2024/02/27 04:35:01;;;;;;;8.68;5.53;;;;;;;11.28;65.93;97526.22;5071594;28;20028;-46
2024/02/27 04:37:27;;;;;;;7.00;4.22;;;;;;;11.39;65.91;97528.03;5071612;28;20115;-46
2024/02/27 04:39:53;;;;;;;9.68;4.80;;;;;;;11.39;64.93;97532.50;5070368;28;20035;-47
2024/02/27 04:42:18;;;;;;;11.45;5.68;;;;;;;11.36;65.42;97533.72;5070180;28;20025;-46
2024/02/27 04:44:47;;;;;;;14.65;4.78;;;;;;;11.38;65.43;97525.63;5070201;28;20036;-46
2024/02/27 04:47:13;;;;;;;10.40;5.00;;;;;;;11.38;65.37;97528.25;5074208;28;20035;-46
2024/02/27 04:49:38;;;;;;;6.22;4.47;;;;;;;11.35;64.69;97526.91;5075466;28;20032;-47
2024/02/27 04:52:04;;;;;;;6.03;4.13;;;;;;;11.26;64.92;97538.00;5075351;28;20056;-46
2024/02/27 04:54:30;;;;;;;9.95;7.93;;;;;;;11.26;65.09;97538.78;5074165;28;20502;-46
2024/02/27 04:56:56;;;;;;;10.30;4.70;;;;;;;11.29;64.84;97534.91;5075344;28;20406;-47
2024/02/27 04:59:21;;;;;;;8.10;7.30;;;;;;;11.15;65.03;97532.56;5073967;28;20123;-46
2024/02/27 05:01:48;;;;;;;11.43;4.95;;;;;;;11.16;65.20;97531.50;5075279;28;20500;-46
2024/02/27 05:04:14;;;;;;;35.05;31.85;;;;;;;11.30;65.16;97529.41;5075162;28;20025;-47
2024/02/27 05:06:40;;;;;;;8.57;5.47;;;;;;;11.31;64.65;97533.66;5075232;28;20101;-46
2024/02/27 05:09:07;;;;;;;9.43;6.20;;;;;;;11.30;64.86;97537.28;5075109;28;20025;-47
2024/02/27 05:11:33;;;;;;;10.88;8.88;;;;;;;11.40;64.40;97547.22;5056999;28;20047;-47
2024/02/27 05:13:58;;;;;;;8.02;5.22;;;;;;;11.38;63.77;97539.56;5074933;28;20398;-47
2024/02/27 05:16:24;;;;;;;9.23;4.60;;;;;;;11.20;64.01;97544.97;5075011;28;20113;-46
2024/02/27 05:18:50;;;;;;;6.35;3.42;;;;;;;11.18;64.55;97554.91;5073628;28;20029;-46
2024/02/27 05:21:22;;;;;;;5.45;3.95;;;;;;;11.19;64.69;97554.69;5074861;28;20029;-47
2024/02/27 05:23:47;;;;;;;7.82;3.83;;;;;;;11.05;64.27;97561.22;5074846;28;20028;-47
2024/02/27 05:26:15;;;;;;;9.57;3.67;;;;;;;11.06;65.26;97554.94;5074781;28;20078;-47
2024/02/27 05:28:41;;;;;;;9.10;5.80;;;;;;;11.20;65.17;97558.91;5074781;28;20036;-47
2024/02/27 05:31:26;;;;;;;9.80;3.55;;;;;;;11.55;64.45;97567.72;5074598;28;20478;-47
2024/02/27 05:33:54;;;;;;;13.18;3.80;;;;;;;11.82;63.78;97575.06;5054675;28;20442;-46
2024/02/27 05:36:20;;;;;;;6.93;3.30;;;;;;;11.83;63.15;97574.00;5054607;28;20169;-46
2024/02/27 05:38:46;;;;;;;7.07;3.50;;;;;;;11.84;63.19;97576.41;5036697;28;20029;-46
2024/02/27 05:41:12;;;;;;;9.93;3.30;;;;;;;11.91;63.38;97577.09;5053192;28;20025;-46
2024/02/27 05:43:38;;;;;;;9.77;4.65;;;;;;;11.87;63.20;97581.22;5053230;28;20071;-46
2024/02/27 05:46:05;;;;;;;4.60;3.60;;;;;;;11.77;63.35;97573.09;5053068;28;20082;-47
2024/02/27 05:48:35;;;;;;;7.47;3.92;;;;;;;11.60;63.62;97571.22;5053082;28;20029;-47
2024/02/27 05:51:00;;;;;;;6.95;3.85;;;;;;;11.52;63.98;97570.81;5054292;28;20047;-46
2024/02/27 05:53:29;;;;;;;8.68;3.13;;;;;;;11.44;64.10;97566.72;5053070;28;20025;-47
2024/02/27 05:55:54;;;;;;;10.43;3.65;;;;;;;11.31;64.50;97575.69;5054229;28;20099;-46
2024/02/27 05:58:22;;;;;;;6.38;2.97;;;;;;;11.30;65.15;97583.78;5053477;28;20027;-46
2024/02/27 06:00:48;;;;;;;6.05;3.22;;;;;;;11.34;65.24;97577.03;5054190;28;20046;-47
2024/02/27 06:03:13;;;;;;;9.02;6.80;;;;;;;11.54;64.98;97576.63;5054108;28;20039;-47
2024/02/27 06:05:39;;;;;;;6.72;3.42;;;;;;;11.69;64.56;97573.47;5054075;28;20032;-47
2024/02/27 06:08:05;;;;;;;8.40;4.32;;;;;;;11.75;64.24;97578.63;5054038;28;20032;-47
2024/02/27 06:10:31;;;;;;;10.77;3.40;;;;;;;11.71;64.28;97577.50;5053974;28;20029;-47
2024/02/27 06:12:56;;;;;;;4.57;2.90;;;;;;;11.75;64.47;97573.38;5053861;28;20422;-46
2024/02/27 06:15:22;;;;;;;8.77;3.35;;;;;;;11.74;63.87;97579.63;5053924;28;20479;-46
2024/02/27 06:17:48;;;;;;;11.23;10.13;;;;;;;11.68;63.75;97577.16;5052638;28;20021;-47
2024/02/27 06:22:58;;;;;;;9.23;2.92;;;;;;;11.67;64.65;97579.00;5054103;28;20024;-46
2024/02/27 06:25:23;;;;;;;6.60;4.25;;;;;;;11.79;64.41;97579.75;5052419;28;20021;-47
2024/02/27 06:27:49;;;;;;;5.13;3.88;;;;;;;11.84;64.30;97591.38;5053739;28;20017;-46
2024/02/27 06:30:15;;;;;;;11.35;3.50;;;;;;;11.83;64.15;97595.03;5053616;28;20020;-47
2024/02/27 06:32:41;;;;;;;7.78;3.95;;;;;;;11.86;64.15;97591.94;5045741;28;20636;-46
2024/02/27 06:35:09;;;;;;;8.25;6.80;;;;;;;11.97;64.02;97606.88;5072175;28;20036;-46
2024/02/27 06:37:35;;;;;;;8.15;4.57;;;;;;;12.06;64.18;97616.00;5073525;28;20556;-46
2024/02/27 06:40:02;;;;;;;8.65;5.80;;;;;;;12.12;64.19;97615.06;5072119;28;20127;-46
2024/02/27 06:42:34;;;;;;;8.45;6.00;;;;;;;12.21;63.61;97612.81;5073613;28;20021;-49
2024/02/27 06:45:02;;;;;;;13.10;8.23;;;;;;;12.21;63.69;97623.34;5073335;28;20107;-49
2024/02/27 06:47:27;;;;;;;12.75;6.07;;;;;;;12.15;63.77;97619.84;5073305;28;20051;-49
2024/02/27 06:49:56;;;;;;;7.72;4.47;;;;;;;12.14;63.63;97627.97;5071902;28;20508;-49
2024/02/27 06:52:22;;;;;;;13.18;4.80;;;;;;;12.07;64.15;97632.56;5073078;28;20470;-48
2024/02/27 06:54:48;;;;;;;11.85;4.00;;;;;;;12.08;64.44;97634.19;5071812;28;20490;-49
2024/02/27 06:57:14;;;;;;;11.63;4.88;;;;;;;12.08;63.64;97645.50;5071742;28;20146;-48
2024/02/27 06:59:40;;;;;;;5.13;4.18;;;;;;;11.99;63.99;97654.78;5071722;28;20028;-49
2024/02/27 07:02:06;;;;;;;11.50;9.68;;;;;;;11.84;64.41;97654.47;5072987;28;20025;-48
2024/02/27 07:04:33;;;;;;;21.10;17.42;;;;;;;11.75;64.62;97651.41;5072950;28;20074;-48
2024/02/27 07:07:00;;;;;;;26.50;23.73;;;;;;;11.82;65.42;97659.16;5072777;28;20569;-49
2024/02/27 07:09:26;;;;;;;58.33;48.55;;;;;;;11.90;65.05;97664.09;5072011;28;20100;-48
2024/02/27 07:11:51;;;;;;;28.92;18.95;;;;;;;11.98;65.12;97655.81;5072503;28;20028;-48
2024/02/27 07:14:17;;;;;;;28.48;13.75;;;;;;;12.10;64.60;97663.69;5071404;28;20077;-49
2024/02/27 07:16:43;;;;;;;15.95;7.43;;;;;;;12.15;64.60;97667.19;5072710;28;20057;-49
2024/02/27 07:19:09;;;;;;;21.05;16.67;;;;;;;12.24;64.47;97670.25;5071374;28;20028;-49
2024/02/27 07:21:35;;;;;;;13.75;5.15;;;;;;;12.28;64.09;97670.56;5071270;28;20486;-48
2024/02/27 07:24:00;;;;;;;8.57;4.40;;;;;;;12.28;64.25;97673.22;5071232;28;20111;-49
2024/02/27 07:26:26;;;;;;;26.13;11.00;;;;;;;12.01;64.34;97667.69;5072512;28;20070;-48
2024/02/27 07:28:52;;;;;;;10.57;4.57;;;;;;;12.02;65.05;97674.56;5072458;28;20023;-48
2024/02/27 07:31:18;;;;;;;17.45;6.57;;;;;;;12.16;65.36;97670.63;5071394;28;20020;-49
2024/02/27 07:33:45;;;;;;;17.70;10.02;;;;;;;12.23;65.26;97684.41;5072252;28;20055;-49
2024/02/27 07:36:10;;;;;;;15.18;9.30;;;;;;;12.21;65.15;97677.81;5072283;28;20027;-49
2024/02/27 07:38:36;;;;;;;9.60;4.55;;;;;;;12.25;64.62;97678.94;5072355;28;20401;-49
2024/02/27 07:41:03;;;;;;;8.52;6.63;;;;;;;12.23;65.16;97678.38;5070926;28;20111;-49
2024/02/27 07:43:29;;;;;;;11.88;4.55;;;;;;;12.29;64.76;97680.84;5072194;28;20017;-49
2024/02/27 07:45:56;;;;;;;11.02;8.57;;;;;;;12.35;64.43;97681.72;5072053;28;20039;-49
2024/02/27 07:48:22;;;;;;;10.10;6.93;;;;;;;12.33;64.28;97674.06;5072085;28;20490;-48
2024/02/27 07:50:48;;;;;;;12.88;7.55;;;;;;;12.36;64.22;97683.34;5070675;28;20032;-48
2024/02/27 07:53:13;;;;;;;272.60;251.18;;;;;;;12.33;64.45;97686.44;5070774;28;20069;-49
2024/02/27 07:55:41;;;;;;;38.42;34.80;;;;;;;12.44;64.83;97682.97;5070733;28;20081;-49
2024/02/27 07:58:08;;;;;;;9.00;7.60;;;;;;;12.47;64.13;97679.84;5071938;28;20025;-49
2024/02/27 08:00:34;;;;;;;9.13;6.13;;;;;;;12.46;64.36;97691.41;5054292;28;20402;-49
2024/02/27 08:02:59;;;;;;;10.55;6.20;;;;;;;12.42;65.01;97685.03;5071979;28;20021;-49
2024/02/27 08:05:28;;;;;;;7.20;4.50;;;;;;;12.48;66.18;97678.03;5071938;28;20063;-49
2024/02/27 08:07:54;;;;;;;9.00;4.85;;;;;;;12.56;66.44;97681.06;5071906;28;20055;-48
2024/02/27 08:10:20;;;;;;;5.75;5.15;;;;;;;12.56;67.08;97681.06;5071891;28;20093;-48
2024/02/27 08:12:47;;;;;;;9.23;5.07;;;;;;;12.41;68.52;97685.25;5071793;28;20020;-49
2024/02/27 08:15:15;;;;;;;7.53;4.65;;;;;;;12.31;69.62;97686.66;5070498;28;20032;-46
2024/02/27 08:17:41;;;;;;;11.95;10.73;;;;;;;12.16;71.63;97684.56;5072002;28;20032;-46
2024/02/27 08:20:08;;;;;;;9.32;8.38;;;;;;;12.08;72.15;97678.88;5071987;28;20017;-46
2024/02/27 08:22:34;;;;;;;6.88;5.72;;;;;;;11.97;72.92;97691.84;5071411;28;20505;-48
2024/02/27 08:25:01;;;;;;;7.60;6.82;;;;;;;11.91;74.54;97692.78;5071616;28;20498;-48
2024/02/27 08:27:27;;;;;;;10.75;9.65;;;;;;;11.86;75.16;97692.63;5070377;28;20525;-48
2024/02/27 08:29:52;;;;;;;9.75;6.00;;;;;;;11.75;75.11;97694.28;5072244;28;20097;-48
2024/02/27 08:32:19;;;;;;;11.90;6.72;;;;;;;11.65;76.59;97688.00;5071178;28;20094;-49
2024/02/27 08:34:45;;;;;;;5.78;5.13;;;;;;;11.62;77.16;97684.00;5070306;28;20043;-49
2024/02/27 08:37:12;;;;;;;7.93;6.35;;;;;;;11.58;77.52;97675.78;5070286;28;20406;-49
2024/02/27 08:39:38;;;;;;;9.63;7.32;;;;;;;11.69;77.67;97673.34;5071616;28;20031;-49
2024/02/27 08:42:04;;;;;;;7.97;6.03;;;;;;;11.77;78.01;97678.25;5070186;28;20440;-48
2024/02/27 08:44:30;;;;;;;9.73;5.90;;;;;;;11.83;76.51;97679.97;5070225;28;20020;-48
2024/02/27 08:46:59;;;;;;;6.32;5.22;;;;;;;11.89;75.22;97694.03;5071772;28;20086;-49
2024/02/27 08:49:25;;;;;;;9.27;5.47;;;;;;;12.05;73.60;97697.75;5071460;28;20042;-49
2024/02/27 08:51:51;;;;;;;9.82;5.50;;;;;;;12.25;72.64;97700.75;5071384;28;20096;-49
2024/02/27 08:54:17;;;;;;;6.97;6.28;;;;;;;12.31;71.09;97696.41;5071409;28;20024;-49
2024/02/27 08:56:44;;;;;;;7.10;5.72;;;;;;;12.54;70.80;97696.28;5070383;28;20028;-48
2024/02/27 08:59:10;;;;;;;10.50;7.05;;;;;;;12.67;68.16;97708.34;5071397;28;20028;-46
2024/02/27 09:01:36;;;;;;;7.35;5.65;;;;;;;12.71;68.07;97716.56;5071408;28;20022;-47
2024/02/27 09:04:01;;;;;;;10.13;6.50;;;;;;;12.67;66.69;97707.56;5071384;28;20490;-48
2024/02/27 09:06:27;;;;;;;8.10;6.45;;;;;;;12.71;67.43;97700.78;5071259;28;20028;-49
2024/02/27 09:08:53;;;;;;;12.52;7.38;;;;;;;12.88;65.61;97701.59;5071357;28;20021;-48
2024/02/27 09:11:19;;;;;;;10.02;7.25;;;;;;;12.70;65.15;97693.94;5071455;28;20025;-49
2024/02/27 09:13:45;;;;;;;9.85;7.05;;;;;;;12.57;65.48;97700.28;5071286;28;20486;-48
2024/02/27 09:16:11;;;;;;;15.05;7.45;;;;;;;12.43;66.49;97707.66;5069916;28;20670;-48
2024/02/27 09:18:39;;;;;;;17.35;7.88;;;;;;;12.57;66.62;97721.31;5069908;28;20516;-48
2024/02/27 09:21:05;;;;;;;9.40;7.88;;;;;;;12.67;65.85;97728.59;5071109;28;20028;-48
2024/02/27 09:23:31;;;;;;;14.32;7.90;;;;;;;12.77;66.30;97737.47;5071190;28;20036;-48
2024/02/27 09:25:57;;;;;;;15.85;8.82;;;;;;;12.83;65.61;97741.00;5069796;28;20111;-48
2024/02/27 09:28:23;;;;;;;12.85;8.90;;;;;;;12.91;65.82;97747.69;5071085;28;20375;-48
2024/02/27 09:30:49;;;;;;;12.27;8.73;;;;;;;12.97;65.33;97747.53;5069709;28;20455;-46
2024/02/27 09:33:15;;;;;;;12.93;9.30;;;;;;;12.93;64.57;97758.81;5071902;28;20055;-46
2024/02/27 09:35:42;;;;;;;14.75;8.80;;;;;;;12.92;64.51;97775.66;5074551;28;20028;-47
2024/02/27 09:38:08;;;;;;;18.10;10.25;;;;;;;12.82;63.89;97780.72;5074571;28;20022;-46
2024/02/27 09:40:35;;;;;;;15.45;8.75;;;;;;;12.83;63.24;97777.06;5074813;28;20032;-46
2024/02/27 09:43:01;;;;;;;12.05;9.35;;;;;;;12.81;62.91;97781.75;5073245;28;20017;-48
2024/02/27 09:45:28;;;;;;;13.68;9.68;;;;;;;12.67;63.96;97782.06;5072964;28;20035;-48
2024/02/27 09:47:56;;;;;;;14.40;9.30;;;;;;;12.78;63.58;97770.66;5074374;28;20055;-48
2024/02/27 09:50:23;;;;;;;17.40;9.00;;;;;;;12.84;63.32;97771.56;5073050;28;20036;-48
2024/02/27 09:52:50;;;;;;;12.45;9.85;;;;;;;12.80;62.21;97762.53;5074310;28;20052;-48
2024/02/27 09:55:20;;;;;;;11.30;9.68;;;;;;;12.61;62.55;97767.19;5072949;28;20031;-48
2024/02/27 09:57:48;;;;;;;13.32;10.23;;;;;;;12.50;63.42;97753.06;5074550;28;20417;-48
2024/02/27 10:00:18;;;;;;;14.77;10.90;;;;;;;12.45;63.41;97760.84;5074193;28;20067;-48
2024/02/27 10:02:53;;;;;;;13.35;11.70;;;;;;;12.43;65.12;97767.41;5074147;28;20027;-48
2024/02/27 10:05:21;;;;;;;18.95;13.40;;;;;;;12.40;64.99;97766.03;5074213;28;20024;-49
2024/02/27 10:07:51;;;;;;;15.70;12.13;;;;;;;12.38;65.47;97765.47;5074063;28;20035;-49
2024/02/27 10:10:18;;;;;;;15.63;10.40;;;;;;;12.41;64.94;97756.31;5073933;28;20035;-48
2024/02/27 10:12:45;;;;;;;14.68;11.00;;;;;;;12.31;64.97;97764.78;5073925;28;20138;-48
2024/02/27 10:15:11;;;;;;;20.52;13.80;;;;;;;12.22;65.54;97766.22;5073843;28;20036;-49
2024/02/27 10:17:38;;;;;;;25.48;22.92;;;;;;;12.21;65.50;97764.59;5073905;28;20020;-49
2024/02/27 10:20:10;;;;;;;23.65;20.02;;;;;;;12.16;65.38;97770.56;5072496;28;20028;-49
2024/02/27 10:22:40;;;;;;;16.60;14.48;;;;;;;12.20;65.60;97776.97;5073835;28;20107;-48
2024/02/27 10:25:14;;;;;;;18.48;13.25;;;;;;;12.28;64.70;97775.81;5073713;28;20016;-48
2024/02/27 10:27:42;;;;;;;28.52;10.80;;;;;;;12.29;64.83;97783.44;5073744;28;20016;-48
2024/02/27 10:30:11;;;;;;;16.00;12.18;;;;;;;12.43;64.87;97791.88;5073660;28;20017;-48
2024/02/27 10:32:39;;;;;;;15.10;12.68;;;;;;;12.53;64.05;97792.06;5073269;28;20458;-48
2024/02/27 10:35:06;;;;;;;16.67;11.45;;;;;;;12.58;63.70;97791.38;5073504;28;20514;-49
2024/02/27 10:37:32;;;;;;;17.17;11.70;;;;;;;12.74;63.38;97797.72;5073541;28;20028;-48
2024/02/27 10:40:01;;;;;;;15.27;12.85;;;;;;;12.78;62.82;97812.00;5073530;28;20451;-48
2024/02/27 10:42:28;;;;;;;17.58;11.73;;;;;;;12.89;63.46;97824.31;5073374;28;20024;-49
2024/02/27 10:44:57;;;;;;;17.15;12.55;;;;;;;13.08;62.88;97821.47;5073134;28;20091;-48
2024/02/27 10:47:26;;;;;;;14.68;10.85;;;;;;;13.13;62.72;97805.75;5071978;28;20086;-48
2024/02/27 10:49:56;;;;;;;13.27;11.32;;;;;;;13.04;62.31;97812.44;5071916;28;20033;-48
2024/02/27 10:52:26;;;;;;;15.68;12.07;;;;;;;12.86;64.75;97822.16;5073225;28;20031;-48
2024/02/27 10:54:53;;;;;;;15.13;12.25;;;;;;;12.83;66.97;97821.81;5073271;28;20033;-48
2024/02/27 10:57:19;;;;;;;15.65;12.65;;;;;;;12.79;69.16;97829.38;5073068;28;20020;-49
2024/02/27 10:59:45;;;;;;;18.65;13.48;;;;;;;12.68;69.70;97827.63;5073368;28;20398;-48
2024/02/27 11:02:17;;;;;;;15.63;13.45;;;;;;;12.41;71.71;97828.16;5073034;28;20135;-49
2024/02/27 11:04:44;;;;;;;15.85;13.63;;;;;;;12.23;73.59;97841.47;5072993;28;20029;-49
2024/02/27 11:07:13;;;;;;;18.38;14.30;;;;;;;12.18;75.84;97835.06;5071653;28;20029;-48
2024/02/27 11:09:40;;;;;;;23.63;18.02;;;;;;;12.19;76.79;97825.31;5055055;28;20024;-48
2024/02/27 11:12:10;;;;;;;21.60;19.33;;;;;;;12.28;77.63;97816.06;5072777;28;20107;-48
2024/02/27 11:14:42;;;;;;;18.05;14.68;;;;;;;12.33;77.38;97831.13;5072926;28;20112;-48
2024/02/27 11:17:20;;;;;;;18.90;14.63;;;;;;;12.52;78.76;97832.59;5072758;28;20020;-46
2024/02/27 11:19:51;;;;;;;15.27;12.52;;;;;;;12.67;78.52;97826.81;5072688;28;20030;-45
2024/02/27 11:22:20;;;;;;;17.10;13.65;;;;;;;12.56;78.31;97838.97;5072567;28;20027;-46
2024/02/27 11:24:47;;;;;;;16.08;14.38;;;;;;;12.53;80.68;97836.78;5072589;28;20021;-45
2024/02/27 11:27:22;;;;;;;16.60;13.65;;;;;;;12.55;79.64;97820.78;5072516;28;20560;-45